Latest Weather Observations for Sheoaks

IDV60901

Issued at 4:11 pm EST Tuesday 7 April 2020 (issued every 10 minutes, with the page automatically refreshed every 10 minutes)

About weather observations | Map of Melbourne area stations | Latest observations for Melbourne area | Other Formats
Station Details ID: 087168 Name: SHEOAKS Lat: -37.91 Lon: 144.13 Height: 236.7 m
Data from the previous 72 hours. | See also: Recent months at Sheoaks
Date/Time
EST
Temp
°C
App
Temp
°C
Dew
Point
°C
Rel
Hum
%
Delta-T
°C
Wind Press
QNH
hPa
Press
MSL
hPa
Rain since
9am
mm
Dir  Spd
km/h
Gust
km/h
Spd
kts
Gust
kts
07/04:00pm 12.1 9.8 7.4 73 2.3 SSE 9 17 5 9 1022.9 1022.7 0.0
07/03:30pm 12.8 10.5 7.5 70 2.6 SSE 9 13 5 7 1023.0 1022.8 0.0
07/03:00pm 12.7 10.2 8.0 73 2.3 SE 11 19 6 10 1023.0 1022.8 0.0
07/02:30pm 12.4 10.0 7.1 70 2.6 S 9 13 5 7 1023.2 1023.1 0.0
07/02:00pm 13.0 11.6 7.2 68 2.8 SSE 4 7 2 4 1023.3 1023.2 0.0
07/01:30pm 12.5 10.5 7.0 69 2.7 S 7 11 4 6 1023.6 1023.5 0.0
07/01:00pm 12.5 10.1 7.2 70 2.6 SSE 9 13 5 7 1023.9 1023.8 0.0
07/12:30pm 12.3 10.3 7.2 71 2.5 S 7 11 4 6 1024.3 1024.2 0.0
07/12:00pm 12.3 9.9 7.2 71 2.5 S 9 13 5 7 1024.5 1024.4 0.0
07/11:30am 12.9 11.3 8.0 72 2.4 SSW 6 7 3 4 1024.7 1024.6 0.0
07/11:00am 12.8 11.0 8.1 73 2.3 S 7 11 4 6 1024.7 1024.6 0.0
07/10:30am 12.1 10.6 8.4 78 1.9 WSW 6 9 3 5 1025.0 1024.8 0.0
07/10:00am 11.4 10.3 8.3 81 1.5 W 4 6 2 3 1025.1 1024.9 0.0
07/09:30am 11.3 9.8 8.3 82 1.5 WSW 6 11 3 6 1025.0 1024.8 0.0
07/09:00am 10.9 9.7 8.1 83 1.4 SW 4 6 2 3 1025.0 1024.8 0.0
07/08:30am 10.8 10.1 8.4 85 1.2 SSE 2 4 1 2 1024.5 1024.4 0.0
07/08:00am 10.2 9.7 8.0 86 1.1 CALM 0 4 0 2 1024.1 1024.0 0.0
07/07:30am 9.9 8.6 7.8 87 1.0 WSW 4 6 2 3 1023.8 1023.7 0.0
07/07:00am 9.7 9.1 7.6 87 1.0 CALM 0 0 0 0 1023.6 1023.5 0.0
07/06:30am 9.6 9.0 7.5 87 1.0 CALM 0 0 0 0 1023.4 1023.3 0.0
07/06:00am 9.6 9.0 7.4 86 1.1 CALM 0 2 0 1 1023.2 1023.1 0.0
07/05:30am 9.8 8.9 7.6 86 1.1 WSW 2 4 1 2 1023.2 1023.1 0.0
07/05:00am 9.8 8.4 7.2 84 1.2 SW 4 6 2 3 1023.1 1022.9 0.0
07/04:30am 9.8 8.4 7.1 83 1.3 SSW 4 6 2 3 1022.9 1022.7 0.0
07/04:00am 9.9 8.9 7.3 84 1.2 W 2 6 1 3 1023.0 1022.8 0.0
07/03:30am 9.5 8.8 7.1 85 1.1 CALM 0 2 0 1 1023.0 1022.8 0.0
07/03:00am 9.7 9.0 7.1 84 1.2 CALM 0 0 0 0 1023.4 1023.3 0.0
07/02:30am 9.6 8.9 7.0 84 1.2 CALM 0 2 0 1 1023.6 1023.5 0.0
07/02:00am 9.8 8.6 6.5 80 1.6 WSW 2 6 1 3 1023.7 1023.6 0.0
07/01:30am 10.1 9.3 6.4 78 1.7 CALM 0 2 0 1 1023.8 1023.7 0.0
07/01:00am 10.0 9.2 6.5 79 1.6 CALM 0 0 0 0 1023.8 1023.7 0.0
07/12:30am 10.1 9.3 6.3 77 1.8 CALM 0 0 0 0 1023.9 1023.8 0.0
07/12:00am 9.8 9.0 6.7 81 1.5 CALM 0 4 0 2 1024.0 1023.9 0.0
 
Date/Time
EST
Temp
°C
App
Temp
°C
Dew
Point
°C
Rel
Hum
%
Delta-T
°C
Wind Press
QNH
hPa
Press
MSL
hPa
Rain since
9am
mm
Dir  Spd
km/h
Gust
km/h
Spd
kts
Gust
kts
06/11:30pm 10.5 9.3 6.6 77 1.9 W 2 4 1 2 1024.0 1023.9 0.0
06/11:00pm 10.4 9.0 7.1 80 1.6 W 4 6 2 3 1024.2 1024.1 0.0
06/10:30pm 10.6 9.2 7.1 79 1.7 W 4 6 2 3 1024.3 1024.2 0.0
06/10:00pm 10.6 9.6 7.3 80 1.6 WNW 2 4 1 2 1024.3 1024.2 0.0
06/09:30pm 10.9 9.4 6.8 76 2.0 S 4 6 2 3 1024.3 1024.2 0.0
06/09:00pm 11.1 9.8 7.6 79 1.7 SSW 4 6 2 3 1024.3 1024.2 0.0
06/08:30pm 11.3 10.5 8.0 80 1.6 SSW 2 4 1 2 1024.1 1024.0 0.0
06/08:00pm 11.5 11.0 7.8 78 1.8 CALM 0 0 0 0 1023.9 1023.8 0.0
06/07:30pm 11.7 9.8 6.6 71 2.4 S 6 9 3 5 1023.5 1023.4 0.0
06/07:00pm 12.0 10.1 5.0 62 3.2 SW 4 6 2 3 1023.2 1023.1 0.0
06/06:30pm 12.0 10.3 5.9 66 2.9 SW 4 11 2 6 1022.9 1022.7 0.0
06/06:00pm 12.3 10.3 6.4 67 2.8 SSW 6 7 3 4 1022.6 1022.4 0.0
06/05:30pm 12.6 10.4 6.2 65 3.1 SW 7 11 4 6 1022.5 1022.3 0.0
06/05:00pm 12.8 10.8 6.2 64 3.2 SSW 6 7 3 4 1022.3 1022.1 0.0
06/04:30pm 13.0 10.7 5.7 61 3.5 SW 7 9 4 5 1022.1 1021.9 0.0
06/04:00pm 13.1 11.1 6.2 63 3.3 SSW 6 9 3 5 1022.1 1021.9 0.0
06/03:30pm 13.2 10.9 5.6 60 3.6 SW 7 13 4 7 1022.0 1021.8 0.0
06/03:00pm 13.4 10.6 5.3 58 3.8 SW 9 17 5 9 1022.0 1021.8 0.0
06/02:30pm 13.1 10.2 6.5 64 3.2 SW 11 19 6 10 1021.9 1021.7 0.0
06/02:00pm 13.1 10.1 6.2 63 3.3 WSW 11 19 6 10 1021.8 1021.6 0.0
06/01:30pm 13.3 10.6 5.7 60 3.6 SW 9 19 5 10 1021.8 1021.6 0.0
06/01:00pm 13.8 10.6 4.9 55 4.2 W 11 20 6 11 1022.0 1021.8 0.0
06/12:30pm 13.2 9.2 4.9 57 3.9 W 15 20 8 11 1022.2 1022.0 0.0
06/12:00pm 14.0 10.9 5.4 56 4.1 SW 11 17 6 9 1022.1 1021.9 0.0
06/11:30am 12.9 10.1 5.1 59 3.7 WSW 9 15 5 8 1022.2 1022.0 0.0
06/11:00am 13.7 11.0 7.2 65 3.2 WSW 11 19 6 10 1022.1 1021.9 0.0
06/10:30am 13.0 10.5 8.3 73 2.4 WSW 11 19 6 10 1022.0 1021.8 0.0
06/10:00am 12.4 9.8 7.7 73 2.3 WSW 11 24 6 13 1021.8 1021.6 0.0
06/09:30am 12.2 10.3 9.2 82 1.5 W 9 15 5 8 1021.7 1021.5 0.0
06/09:00am 11.6 10.4 10.2 91 0.7 WNW 7 11 4 6 1021.4 1021.2 5.2
06/08:30am 10.4 9.0 9.5 94 0.5 NW 7 11 4 6 1021.3 1021.1 5.2
06/08:00am 9.6 7.6 8.8 95 0.4 WNW 9 13 5 7 1020.9 1020.7 5.2
06/07:30am 9.3 6.5 8.5 95 0.4 WNW 13 17 7 9 1020.2 1020.1 5.2
06/07:00am 9.1 6.2 8.3 95 0.4 WNW 13 17 7 9 1020.0 1019.9 5.2
06/06:30am 8.9 6.4 8.1 95 0.4 WNW 11 13 6 7 1019.6 1019.5 5.2
06/06:00am 8.9 6.4 8.1 95 0.4 WNW 11 19 6 10 1019.1 1018.9 5.2
06/05:30am 9.0 6.1 8.1 94 0.4 W 13 17 7 9 1018.8 1018.6 5.2
06/05:00am 9.2 6.7 8.3 94 0.4 W 11 17 6 9 1018.2 1018.0 5.0
06/04:30am 9.4 7.0 8.5 94 0.4 WNW 11 13 6 7 1018.0 1017.8 5.0
06/04:00am 8.9 6.7 8.0 94 0.4 WNW 9 13 5 7 1017.6 1017.4 5.0
06/03:30am 8.8 6.6 7.9 94 0.4 WNW 9 13 5 7 1017.2 1017.0 5.0
06/03:00am 8.9 6.7 7.8 93 0.5 WNW 9 13 5 7 1016.9 1016.7 5.0
06/02:30am 9.5 7.4 8.4 93 0.5 WNW 9 13 5 7 1016.6 1016.4 5.0
06/02:00am 9.7 7.7 8.6 93 0.5 WNW 9 15 5 8 1016.7 1016.5 5.0
06/01:30am 9.5 7.0 8.4 93 0.5 WNW 11 15 6 8 1016.4 1016.2 5.0
06/01:00am 9.6 7.2 8.5 93 0.5 WNW 11 15 6 8 1016.1 1015.9 5.0
06/12:30am 9.2 7.0 8.0 92 0.6 WNW 9 13 5 7 1016.0 1015.7 5.0
06/12:00am 9.6 7.1 8.2 91 0.7 W 11 15 6 8 1015.5 1015.3 5.0
 
Date/Time
EST
Temp
°C
App
Temp
°C
Dew
Point
°C
Rel
Hum
%
Delta-T
°C
Wind Press
QNH
hPa
Press
MSL
hPa
Rain since
9am
mm
Dir  Spd
km/h
Gust
km/h
Spd
kts
Gust
kts
05/11:30pm 10.2 7.8 8.6 90 0.8 W 11 20 6 11 1015.7 1015.5 5.0
05/11:00pm 10.6 8.3 9.0 90 0.8 W 11 19 6 10 1015.6 1015.4 5.0
05/10:30pm 10.8 8.2 9.4 91 0.7 W 13 19 7 10 1015.4 1015.2 5.0
05/10:00pm 10.9 8.7 9.5 91 0.7 WNW 11 17 6 9 1015.3 1015.1 5.0
05/09:30pm 10.9 8.7 9.5 91 0.7 W 11 19 6 10 1015.0 1014.8 5.0
05/09:00pm 11.1 9.0 9.7 91 0.7 W 11 19 6 10 1014.6 1014.4 5.0
05/08:30pm 11.1 8.6 9.7 91 0.7 W 13 20 7 11 1014.0 1013.8 5.0
05/08:00pm 11.1 9.0 9.7 91 0.7 W 11 17 6 9 1013.7 1013.5 5.0
05/07:30pm 11.3 8.9 10.0 92 0.7 W 13 19 7 10 1013.1 1012.9 5.0
05/07:00pm 11.7 9.8 10.4 92 0.7 W 11 19 6 10 1012.5 1012.3 3.8
05/06:30pm 11.6 9.6 10.2 91 0.7 W 11 22 6 12 1011.7 1011.4 3.6
05/06:00pm 11.5 8.3 9.9 90 0.8 W 17 30 9 16 1010.9 1010.7 3.6
05/05:30pm 12.9 9.5 10.4 85 1.3 W 19 32 10 17 1010.0 1009.8 3.2
05/05:00pm 12.9 9.3 10.6 86 1.2 W 20 32 11 17 1009.5 1009.3 3.2
05/04:30pm 13.6 10.1 10.8 83 1.5 W 20 37 11 20 1009.3 1009.1 3.0
05/04:00pm 13.5 9.4 11.6 88 1.0 W 24 35 13 19 1008.7 1008.4 3.0
05/03:30pm 14.0 10.8 11.3 84 1.5 W 19 30 10 16 1008.2 1007.9 2.8
05/03:00pm 13.7 9.5 11.2 85 1.3 W 24 37 13 20 1007.8 1007.5 2.8
05/02:30pm 13.3 8.6 11.9 91 0.8 W 28 48 15 26 1007.7 1007.4 2.8
05/02:23pm 13.2 8.4 11.8 91 0.8 W 28 48 15 26 1007.6 1007.3 2.6
05/02:00pm 13.1 9.8 11.5 90 0.9 W 20 32 11 17 1007.5 1007.2 2.4
05/01:30pm 13.9 10.7 11.8 87 1.1 W 20 35 11 19 1007.2 1006.9 2.0
05/01:00pm 12.8 7.4 11.0 89 1.0 W 30 44 16 24 1006.8 1006.6 2.0
05/12:30pm 12.6 7.3 9.8 83 1.4 WSW 28 50 15 27 1006.8 1006.6 1.2
05/12:00pm 14.4 9.4 12.3 87 1.2 WNW 30 50 16 27 1006.4 1006.2 1.2
05/11:45am 13.2 8.4 11.8 91 0.8 WNW 28 48 15 26 1006.4 1006.2 1.0
05/11:30am 12.9 9.1 11.3 90 0.9 WNW 22 35 12 19 1006.6 1006.4 1.0
05/11:01am 12.9 7.9 10.8 87 1.1 NW 28 46 15 25 1005.9 1005.7 0.0
05/11:00am 13.0 8.4 10.9 87 1.1 NW 26 43 14 23 1006.0 1005.8 0.0
05/10:30am 13.1 7.5 10.1 82 1.6 NW 30 50 16 27 1005.6 1005.4 0.0
05/10:06am 12.3 7.0 9.9 85 1.2 NW 28 48 15 26 1005.3 1005.1 0.0
05/10:00am 12.2 7.3 9.8 85 1.2 NW 26 39 14 21 1005.3 1005.1 0.0
05/09:30am 12.3 5.8 8.8 79 1.8 NW 33 54 18 29 1005.1 1004.8 0.0
05/09:00am 12.7 6.1 8.4 75 2.2 NW 33 54 18 29 1004.4 1004.1 6.2
05/08:30am 11.7 4.5 7.8 77 1.9 NW 35 61 19 33 1004.3 1004.0 6.2
05/08:00am 11.2 2.5 7.5 78 1.8 NNW 43 65 23 35 1003.0 1002.7 6.2
05/07:30am 11.0 3.3 6.9 76 2.0 NW 37 57 20 31 1003.4 1003.1 6.2
05/07:00am 10.3 2.8 6.3 76 1.9 NW 35 56 19 30 1003.1 1002.8 6.2
05/06:31am 10.0 2.8 6.0 76 1.9 NW 33 65 18 35 1003.0 1002.7 6.2
05/06:30am 9.8 2.8 5.8 76 1.9 NW 32 48 17 26 1003.1 1002.8 6.2
05/06:00am 9.3 2.0 5.3 76 1.8 NNW 33 63 18 34 1003.3 1003.0 6.2
05/05:30am 8.7 1.4 4.5 75 1.9 NNW 32 54 17 29 1003.4 1003.1 6.2
05/05:18am 8.7 2.2 4.5 75 1.9 NNW 28 48 15 26 1003.5 1003.2 6.2
05/05:00am 8.4 1.5 4.4 76 1.8 NNW 30 43 16 23 1003.5 1003.2 6.2
05/04:30am 8.4 1.8 4.0 74 1.9 NNW 28 44 15 24 1004.0 1003.7 6.2
05/04:20am 8.5 1.9 4.1 74 1.9 NNW 28 48 15 26 1004.1 1003.8 6.2
05/04:00am 8.3 2.0 3.9 74 1.9 NNW 26 41 14 22 1004.2 1003.9 6.2
05/03:30am 8.0 1.7 3.7 74 1.9 NNW 26 43 14 23 1004.4 1004.1 6.2
05/03:00am 7.9 2.7 3.4 73 2.0 NNW 20 32 11 17 1005.2 1005.0 6.2
05/03:30am 7.6 2.4 3.6 76 1.7 NW 20 32 11 17 1005.4 1005.2 6.2
05/03:00am 7.3 2.3 3.7 78 1.6 NNW 19 28 10 15 1005.7 1005.5 6.2
05/02:30am 7.3 2.7 3.7 78 1.6 NW 17 30 9 16 1005.9 1005.7 6.2
05/02:00am 7.4 2.8 3.8 78 1.6 NW 17 24 9 13 1006.2 1006.0 6.2
05/01:30am 7.3 3.1 3.9 79 1.5 NW 15 24 8 13 1006.3 1006.1 6.2
05/01:00am 7.1 3.0 4.1 81 1.3 NW 15 22 8 12 1006.5 1006.3 6.2
05/12:30am 6.9 2.3 3.9 81 1.3 NW 17 26 9 14 1006.9 1006.7 6.2
05/12:00am 7.1 3.0 4.1 81 1.3 NW 15 28 8 15 1007.0 1006.8 6.2
 
Date/Time
EST
Temp
°C
App
Temp
°C
Dew
Point
°C
Rel
Hum
%
Delta-T
°C
Wind Press
QNH
hPa
Press
MSL
hPa
Rain since
9am
mm
Dir  Spd
km/h
Gust
km/h
Spd
kts
Gust
kts
04/11:30pm 7.0 2.5 4.0 81 1.3 NW 17 26 9 14 1007.2 1006.9 6.2
04/11:00pm 7.1 2.9 3.9 80 1.4 NW 15 26 8 14 1007.2 1006.9 6.2
04/10:30pm 7.5 2.9 3.6 76 1.7 NW 17 26 9 14 1006.9 1006.7 6.2
04/10:00pm 7.7 2.7 3.7 76 1.7 WNW 19 28 10 15 1006.7 1006.5 6.2
04/09:30pm 7.9 2.8 3.9 76 1.8 W 20 33 11 18 1006.4 1006.2 6.2
04/09:00pm 7.8 2.8 3.8 76 1.8 WNW 19 32 10 17 1006.2 1006.0 6.2
04/08:30pm 7.5 2.3 3.6 76 1.7 WNW 20 32 11 17 1005.9 1005.7 6.2
04/08:00pm 7.5 2.3 3.7 77 1.7 WNW 20 32 11 17 1005.2 1005.0 6.2
04/07:30pm 7.5 2.3 3.7 77 1.6 WNW 20 32 11 17 1004.8 1004.5 6.2
04/07:00pm 8.1 3.3 5.4 83 1.2 WNW 20 33 11 18 1004.4 1004.1 6.2
04/06:30pm 7.5 3.2 5.3 86 1.0 WNW 17 28 9 15 1003.9 1003.6 6.2
04/06:00pm 6.8 2.4 5.0 88 0.8 W 17 28 9 15 1003.3 1003.0 6.2
04/05:33pm 8.8 3.1 4.8 76 1.8 W 24 54 13 29 1003.3 1003.0 4.6
04/05:30pm 9.0 3.7 5.0 76 1.8 W 22 41 12 22 1002.4 1002.2 4.6

Latest Capital City Observations: Canberra | Sydney | Melbourne | Brisbane | Adelaide | Perth | Hobart | Darwin

Other formats

Comma delimited format used in spreadsheet applications
http://www.bom.gov.au/fwo/IDV60901/IDV60901.94863.axf

JavaScript Object Notation format (JSON) in row-major order
http://www.bom.gov.au/fwo/IDV60901/IDV60901.94863.json

Data quality

Most of these data are generated automatically and are frequently updated. Quality checks on data are not normally performed. It is possible for incorrect values to appear. Refer to information at About Latest Weather Observations and please check the disclaimer before using these data.